sensor_id;sensor_type;location;lat;lon;timestamp;P1;durP1;ratioP1;P2;durP2;ratioP2
4698;SDS011;33708;49.466;11.176;2022-11-24T00:01:47;14.50;;;6.40;;
4698;SDS011;33708;49.466;11.176;2022-11-24T00:04:13;14.10;;;5.63;;
4698;SDS011;33708;49.466;11.176;2022-11-24T00:06:39;16.00;;;6.30;;
4698;SDS011;33708;49.466;11.176;2022-11-24T00:09:05;15.37;;;6.30;;
4698;SDS011;33708;49.466;11.176;2022-11-24T00:11:31;14.53;;;5.90;;
4698;SDS011;33708;49.466;11.176;2022-11-24T00:13:58;13.40;;;6.20;;
4698;SDS011;33708;49.466;11.176;2022-11-24T00:18:52;12.67;;;5.97;;
4698;SDS011;33708;49.466;11.176;2022-11-24T00:21:20;15.30;;;6.00;;
4698;SDS011;33708;49.466;11.176;2022-11-24T00:23:46;16.87;;;7.33;;
4698;SDS011;33708;49.466;11.176;2022-11-24T00:26:31;15.53;;;7.00;;
4698;SDS011;33708;49.466;11.176;2022-11-24T00:28:59;12.70;;;6.03;;
4698;SDS011;33708;49.466;11.176;2022-11-24T00:33:53;17.00;;;6.80;;
4698;SDS011;33708;49.466;11.176;2022-11-24T00:36:21;12.33;;;5.90;;
4698;SDS011;33708;49.466;11.176;2022-11-24T00:38:51;13.67;;;6.13;;
4698;SDS011;33708;49.466;11.176;2022-11-24T00:41:21;13.97;;;7.50;;
4698;SDS011;33708;49.466;11.176;2022-11-24T00:43:47;13.53;;;6.67;;
4698;SDS011;33708;49.466;11.176;2022-11-24T00:46:13;15.73;;;6.60;;
4698;SDS011;33708;49.466;11.176;2022-11-24T00:48:38;16.47;;;6.90;;
4698;SDS011;33708;49.466;11.176;2022-11-24T00:51:05;15.10;;;6.80;;
4698;SDS011;33708;49.466;11.176;2022-11-24T00:53:32;17.77;;;7.10;;
4698;SDS011;33708;49.466;11.176;2022-11-24T00:55:58;15.37;;;7.30;;
4698;SDS011;33708;49.466;11.176;2022-11-24T00:58:24;14.97;;;7.13;;
4698;SDS011;33708;49.466;11.176;2022-11-24T01:00:50;14.50;;;6.90;;
4698;SDS011;33708;49.466;11.176;2022-11-24T01:03:17;17.23;;;7.03;;
4698;SDS011;33708;49.466;11.176;2022-11-24T01:05:44;16.40;;;7.90;;
4698;SDS011;33708;49.466;11.176;2022-11-24T01:08:10;15.83;;;7.70;;
4698;SDS011;33708;49.466;11.176;2022-11-24T01:10:38;21.63;;;6.83;;
4698;SDS011;33708;49.466;11.176;2022-11-24T01:13:03;14.27;;;6.40;;
4698;SDS011;33708;49.466;11.176;2022-11-24T01:15:29;19.80;;;6.77;;
4698;SDS011;33708;49.466;11.176;2022-11-24T01:17:55;19.03;;;6.33;;
4698;SDS011;33708;49.466;11.176;2022-11-24T01:20:21;19.90;;;7.07;;
4698;SDS011;33708;49.466;11.176;2022-11-24T01:22:48;22.17;;;7.40;;
4698;SDS011;33708;49.466;11.176;2022-11-24T01:25:13;18.20;;;6.90;;
4698;SDS011;33708;49.466;11.176;2022-11-24T01:27:39;22.73;;;7.07;;
4698;SDS011;33708;49.466;11.176;2022-11-24T01:30:05;16.13;;;5.73;;
4698;SDS011;33708;49.466;11.176;2022-11-24T01:32:32;17.93;;;6.77;;
4698;SDS011;33708;49.466;11.176;2022-11-24T01:35:00;16.00;;;6.33;;
4698;SDS011;33708;49.466;11.176;2022-11-24T01:37:26;20.37;;;7.60;;
4698;SDS011;33708;49.466;11.176;2022-11-24T01:40:09;17.83;;;6.20;;
4698;SDS011;33708;49.466;11.176;2022-11-24T01:42:52;22.30;;;6.30;;
4698;SDS011;33708;49.466;11.176;2022-11-24T01:45:37;18.93;;;7.23;;
4698;SDS011;33708;49.466;11.176;2022-11-24T01:48:18;31.53;;;6.80;;
4698;SDS011;33708;49.466;11.176;2022-11-24T01:50:53;22.40;;;6.97;;
4698;SDS011;33708;49.466;11.176;2022-11-24T01:53:29;17.47;;;6.27;;
4698;SDS011;33708;49.466;11.176;2022-11-24T01:55:57;19.70;;;5.57;;
4698;SDS011;33708;49.466;11.176;2022-11-24T01:58:26;18.90;;;6.07;;
4698;SDS011;33708;49.466;11.176;2022-11-24T02:00:57;23.40;;;5.83;;
4698;SDS011;33708;49.466;11.176;2022-11-24T02:06:26;23.20;;;6.10;;
4698;SDS011;33708;49.466;11.176;2022-11-24T02:09:19;18.87;;;5.67;;
4698;SDS011;33708;49.466;11.176;2022-11-24T02:11:52;19.37;;;5.87;;
4698;SDS011;33708;49.466;11.176;2022-11-24T02:14:21;19.10;;;6.10;;
4698;SDS011;33708;49.466;11.176;2022-11-24T02:16:53;16.30;;;5.10;;
4698;SDS011;33708;49.466;11.176;2022-11-24T02:21:55;14.93;;;5.20;;
4698;SDS011;33708;49.466;11.176;2022-11-24T02:24:24;15.50;;;5.07;;
4698;SDS011;33708;49.466;11.176;2022-11-24T02:27:01;14.43;;;4.80;;
4698;SDS011;33708;49.466;11.176;2022-11-24T02:29:27;15.13;;;5.23;;
4698;SDS011;33708;49.466;11.176;2022-11-24T02:31:54;16.53;;;5.30;;
4698;SDS011;33708;49.466;11.176;2022-11-24T02:34:23;17.10;;;5.77;;
4698;SDS011;33708;49.466;11.176;2022-11-24T02:36:48;19.23;;;5.73;;
4698;SDS011;33708;49.466;11.176;2022-11-24T02:39:14;12.90;;;4.77;;
4698;SDS011;33708;49.466;11.176;2022-11-24T02:41:41;12.70;;;3.70;;
4698;SDS011;33708;49.466;11.176;2022-11-24T02:44:10;19.17;;;4.73;;
4698;SDS011;33708;49.466;11.176;2022-11-24T02:46:39;16.07;;;4.53;;
4698;SDS011;33708;49.466;11.176;2022-11-24T02:49:05;18.60;;;4.80;;
4698;SDS011;33708;49.466;11.176;2022-11-24T02:51:30;18.27;;;5.23;;
4698;SDS011;33708;49.466;11.176;2022-11-24T02:53:58;14.00;;;3.57;;
4698;SDS011;33708;49.466;11.176;2022-11-24T02:56:24;15.13;;;3.67;;
4698;SDS011;33708;49.466;11.176;2022-11-24T02:58:50;20.50;;;4.73;;
4698;SDS011;33708;49.466;11.176;2022-11-24T03:01:16;12.80;;;4.23;;
4698;SDS011;33708;49.466;11.176;2022-11-24T03:03:42;16.43;;;4.53;;
4698;SDS011;33708;49.466;11.176;2022-11-24T03:06:08;16.47;;;4.17;;
4698;SDS011;33708;49.466;11.176;2022-11-24T03:08:33;16.60;;;4.53;;
4698;SDS011;33708;49.466;11.176;2022-11-24T03:11:00;17.33;;;4.20;;
4698;SDS011;33708;49.466;11.176;2022-11-24T03:13:26;13.73;;;3.93;;
4698;SDS011;33708;49.466;11.176;2022-11-24T03:15:52;11.00;;;3.30;;
4698;SDS011;33708;49.466;11.176;2022-11-24T03:18:17;17.70;;;4.40;;
4698;SDS011;33708;49.466;11.176;2022-11-24T03:20:43;15.50;;;4.47;;
4698;SDS011;33708;49.466;11.176;2022-11-24T03:23:08;16.47;;;3.53;;
4698;SDS011;33708;49.466;11.176;2022-11-24T03:25:34;14.63;;;4.30;;
4698;SDS011;33708;49.466;11.176;2022-11-24T03:28:00;14.47;;;4.00;;
4698;SDS011;33708;49.466;11.176;2022-11-24T03:30:26;19.23;;;4.10;;
4698;SDS011;33708;49.466;11.176;2022-11-24T03:32:51;14.90;;;3.80;;
4698;SDS011;33708;49.466;11.176;2022-11-24T03:35:18;14.37;;;3.50;;
4698;SDS011;33708;49.466;11.176;2022-11-24T03:37:44;21.87;;;4.20;;
4698;SDS011;33708;49.466;11.176;2022-11-24T03:40:10;20.67;;;4.13;;
4698;SDS011;33708;49.466;11.176;2022-11-24T03:42:35;16.10;;;3.60;;
4698;SDS011;33708;49.466;11.176;2022-11-24T03:45:01;11.33;;;3.17;;
4698;SDS011;33708;49.466;11.176;2022-11-24T03:47:27;16.17;;;3.60;;
4698;SDS011;33708;49.466;11.176;2022-11-24T03:49:53;12.80;;;3.80;;
4698;SDS011;33708;49.466;11.176;2022-11-24T03:52:18;27.60;;;4.73;;
4698;SDS011;33708;49.466;11.176;2022-11-24T03:54:44;20.47;;;4.43;;
4698;SDS011;33708;49.466;11.176;2022-11-24T03:57:11;17.23;;;3.73;;
4698;SDS011;33708;49.466;11.176;2022-11-24T03:59:37;23.17;;;4.30;;
4698;SDS011;33708;49.466;11.176;2022-11-24T04:02:03;18.10;;;3.90;;
4698;SDS011;33708;49.466;11.176;2022-11-24T04:04:29;29.20;;;4.20;;
4698;SDS011;33708;49.466;11.176;2022-11-24T04:06:54;14.83;;;3.63;;
4698;SDS011;33708;49.466;11.176;2022-11-24T04:09:20;14.83;;;3.83;;
4698;SDS011;33708;49.466;11.176;2022-11-24T04:11:46;16.50;;;3.87;;
4698;SDS011;33708;49.466;11.176;2022-11-24T04:14:30;17.50;;;3.70;;
4698;SDS011;33708;49.466;11.176;2022-11-24T04:16:55;20.77;;;3.97;;
4698;SDS011;33708;49.466;11.176;2022-11-24T04:19:21;29.60;;;5.70;;
4698;SDS011;33708;49.466;11.176;2022-11-24T04:21:46;29.23;;;6.03;;
4698;SDS011;33708;49.466;11.176;2022-11-24T04:24:12;13.73;;;4.60;;
4698;SDS011;33708;49.466;11.176;2022-11-24T04:26:38;17.87;;;4.53;;
4698;SDS011;33708;49.466;11.176;2022-11-24T04:29:04;23.47;;;5.33;;
4698;SDS011;33708;49.466;11.176;2022-11-24T04:31:30;35.30;;;4.73;;
4698;SDS011;33708;49.466;11.176;2022-11-24T04:33:55;25.80;;;4.87;;
4698;SDS011;33708;49.466;11.176;2022-11-24T04:36:21;23.93;;;5.33;;
4698;SDS011;33708;49.466;11.176;2022-11-24T04:38:47;25.40;;;4.67;;
4698;SDS011;33708;49.466;11.176;2022-11-24T04:41:12;27.90;;;4.50;;
4698;SDS011;33708;49.466;11.176;2022-11-24T04:43:38;20.63;;;4.37;;
4698;SDS011;33708;49.466;11.176;2022-11-24T04:46:03;25.13;;;4.57;;
4698;SDS011;33708;49.466;11.176;2022-11-24T04:48:29;17.23;;;4.10;;
4698;SDS011;33708;49.466;11.176;2022-11-24T04:50:55;28.60;;;5.70;;
4698;SDS011;33708;49.466;11.176;2022-11-24T04:53:20;22.30;;;3.87;;
4698;SDS011;33708;49.466;11.176;2022-11-24T04:55:46;16.07;;;3.53;;
4698;SDS011;33708;49.466;11.176;2022-11-24T04:58:12;17.73;;;3.93;;
4698;SDS011;33708;49.466;11.176;2022-11-24T05:00:38;20.90;;;3.57;;
4698;SDS011;33708;49.466;11.176;2022-11-24T05:03:04;19.30;;;4.13;;
4698;SDS011;33708;49.466;11.176;2022-11-24T05:05:30;19.33;;;3.50;;
4698;SDS011;33708;49.466;11.176;2022-11-24T05:07:57;23.00;;;4.70;;
4698;SDS011;33708;49.466;11.176;2022-11-24T05:10:24;21.43;;;4.60;;
4698;SDS011;33708;49.466;11.176;2022-11-24T05:12:59;23.53;;;4.47;;
4698;SDS011;33708;49.466;11.176;2022-11-24T05:15:25;20.33;;;5.20;;
4698;SDS011;33708;49.466;11.176;2022-11-24T05:17:50;26.40;;;4.27;;
4698;SDS011;33708;49.466;11.176;2022-11-24T05:20:17;29.13;;;4.73;;
4698;SDS011;33708;49.466;11.176;2022-11-24T05:22:43;21.40;;;4.00;;
4698;SDS011;33708;49.466;11.176;2022-11-24T05:25:09;27.90;;;4.50;;
4698;SDS011;33708;49.466;11.176;2022-11-24T05:27:35;21.50;;;4.30;;
4698;SDS011;33708;49.466;11.176;2022-11-24T05:30:01;23.23;;;4.03;;
4698;SDS011;33708;49.466;11.176;2022-11-24T05:32:26;24.93;;;3.30;;
4698;SDS011;33708;49.466;11.176;2022-11-24T05:34:52;18.77;;;4.50;;
4698;SDS011;33708;49.466;11.176;2022-11-24T05:37:18;18.00;;;4.07;;
4698;SDS011;33708;49.466;11.176;2022-11-24T05:39:45;27.00;;;4.33;;
4698;SDS011;33708;49.466;11.176;2022-11-24T05:42:10;18.20;;;4.60;;
4698;SDS011;33708;49.466;11.176;2022-11-24T05:44:54;17.47;;;3.93;;
4698;SDS011;33708;49.466;11.176;2022-11-24T05:47:21;20.90;;;3.70;;
4698;SDS011;33708;49.466;11.176;2022-11-24T05:49:47;19.17;;;4.00;;
4698;SDS011;33708;49.466;11.176;2022-11-24T05:52:13;22.57;;;3.70;;
4698;SDS011;33708;49.466;11.176;2022-11-24T05:54:39;20.07;;;4.10;;
4698;SDS011;33708;49.466;11.176;2022-11-24T05:57:04;19.57;;;4.37;;
4698;SDS011;33708;49.466;11.176;2022-11-24T05:59:30;28.87;;;4.83;;
4698;SDS011;33708;49.466;11.176;2022-11-24T06:01:55;20.47;;;4.37;;
4698;SDS011;33708;49.466;11.176;2022-11-24T06:04:21;19.00;;;4.10;;
4698;SDS011;33708;49.466;11.176;2022-11-24T06:06:47;25.50;;;5.17;;
4698;SDS011;33708;49.466;11.176;2022-11-24T06:09:12;27.47;;;4.80;;
4698;SDS011;33708;49.466;11.176;2022-11-24T06:11:38;28.70;;;4.83;;
4698;SDS011;33708;49.466;11.176;2022-11-24T06:14:04;20.10;;;4.50;;
4698;SDS011;33708;49.466;11.176;2022-11-24T06:16:29;17.90;;;4.50;;
4698;SDS011;33708;49.466;11.176;2022-11-24T06:18:55;29.87;;;4.83;;
4698;SDS011;33708;49.466;11.176;2022-11-24T06:21:20;19.30;;;4.47;;
4698;SDS011;33708;49.466;11.176;2022-11-24T06:23:46;27.13;;;4.73;;
4698;SDS011;33708;49.466;11.176;2022-11-24T06:26:13;30.57;;;5.23;;
4698;SDS011;33708;49.466;11.176;2022-11-24T06:28:38;17.77;;;4.00;;
4698;SDS011;33708;49.466;11.176;2022-11-24T06:31:04;22.57;;;4.40;;
4698;SDS011;33708;49.466;11.176;2022-11-24T06:33:33;24.83;;;4.80;;
4698;SDS011;33708;49.466;11.176;2022-11-24T06:36:04;25.03;;;5.43;;
4698;SDS011;33708;49.466;11.176;2022-11-24T06:38:31;43.10;;;5.87;;
4698;SDS011;33708;49.466;11.176;2022-11-24T06:40:59;22.87;;;4.17;;
4698;SDS011;33708;49.466;11.176;2022-11-24T06:43:26;31.33;;;4.63;;
4698;SDS011;33708;49.466;11.176;2022-11-24T06:45:53;22.57;;;4.20;;
4698;SDS011;33708;49.466;11.176;2022-11-24T06:48:19;30.93;;;3.90;;
4698;SDS011;33708;49.466;11.176;2022-11-24T06:50:44;26.10;;;4.60;;
4698;SDS011;33708;49.466;11.176;2022-11-24T06:53:10;22.00;;;4.10;;
4698;SDS011;33708;49.466;11.176;2022-11-24T06:55:36;22.63;;;4.30;;
4698;SDS011;33708;49.466;11.176;2022-11-24T06:58:03;17.63;;;4.50;;
4698;SDS011;33708;49.466;11.176;2022-11-24T07:00:28;26.67;;;4.60;;
4698;SDS011;33708;49.466;11.176;2022-11-24T07:02:56;18.87;;;3.90;;
4698;SDS011;33708;49.466;11.176;2022-11-24T07:05:22;23.93;;;4.43;;
4698;SDS011;33708;49.466;11.176;2022-11-24T07:07:48;22.23;;;3.73;;
4698;SDS011;33708;49.466;11.176;2022-11-24T07:10:13;17.97;;;3.53;;
4698;SDS011;33708;49.466;11.176;2022-11-24T07:12:39;20.37;;;3.43;;
4698;SDS011;33708;49.466;11.176;2022-11-24T07:15:05;22.37;;;3.47;;
4698;SDS011;33708;49.466;11.176;2022-11-24T07:17:34;18.30;;;3.30;;
4698;SDS011;33708;49.466;11.176;2022-11-24T07:20:00;20.23;;;3.10;;
4698;SDS011;33708;49.466;11.176;2022-11-24T07:22:26;17.00;;;3.60;;
4698;SDS011;33708;49.466;11.176;2022-11-24T07:24:51;34.97;;;4.47;;
4698;SDS011;33708;49.466;11.176;2022-11-24T07:27:17;13.87;;;3.23;;
4698;SDS011;33708;49.466;11.176;2022-11-24T07:29:43;20.87;;;2.80;;
4698;SDS011;33708;49.466;11.176;2022-11-24T07:32:08;20.53;;;3.17;;
4698;SDS011;33708;49.466;11.176;2022-11-24T07:34:34;15.77;;;3.30;;
4698;SDS011;33708;49.466;11.176;2022-11-24T07:36:59;20.03;;;3.20;;
4698;SDS011;33708;49.466;11.176;2022-11-24T07:39:25;20.80;;;3.37;;
4698;SDS011;33708;49.466;11.176;2022-11-24T07:41:51;27.67;;;3.10;;
4698;SDS011;33708;49.466;11.176;2022-11-24T07:44:16;18.37;;;3.30;;
4698;SDS011;33708;49.466;11.176;2022-11-24T07:46:42;19.73;;;3.10;;
4698;SDS011;33708;49.466;11.176;2022-11-24T07:49:07;23.73;;;3.17;;
4698;SDS011;33708;49.466;11.176;2022-11-24T07:51:33;14.10;;;2.60;;
4698;SDS011;33708;49.466;11.176;2022-11-24T07:54:00;19.63;;;3.27;;
4698;SDS011;33708;49.466;11.176;2022-11-24T07:56:26;19.93;;;3.33;;
4698;SDS011;33708;49.466;11.176;2022-11-24T07:58:52;18.07;;;3.10;;
4698;SDS011;33708;49.466;11.176;2022-11-24T08:01:17;12.97;;;2.27;;
4698;SDS011;33708;49.466;11.176;2022-11-24T08:03:44;18.00;;;3.20;;
4698;SDS011;33708;49.466;11.176;2022-11-24T08:06:10;17.27;;;2.70;;
4698;SDS011;33708;49.466;11.176;2022-11-24T08:08:36;14.10;;;2.63;;
4698;SDS011;33708;49.466;11.176;2022-11-24T08:11:03;15.27;;;2.70;;
4698;SDS011;33708;49.466;11.176;2022-11-24T08:13:33;15.83;;;3.30;;
4698;SDS011;33708;49.466;11.176;2022-11-24T08:16:02;14.87;;;2.93;;
4698;SDS011;33708;49.466;11.176;2022-11-24T08:18:31;19.93;;;3.33;;
4698;SDS011;33708;49.466;11.176;2022-11-24T08:20:57;17.40;;;3.50;;
4698;SDS011;33708;49.466;11.176;2022-11-24T08:23:23;17.87;;;2.50;;
4698;SDS011;33708;49.466;11.176;2022-11-24T08:25:49;14.80;;;2.40;;
4698;SDS011;33708;49.466;11.176;2022-11-24T08:28:14;20.20;;;2.43;;
4698;SDS011;33708;49.466;11.176;2022-11-24T08:30:40;14.23;;;2.30;;
4698;SDS011;33708;49.466;11.176;2022-11-24T08:33:06;15.60;;;3.10;;
4698;SDS011;33708;49.466;11.176;2022-11-24T08:35:34;10.67;;;2.50;;
4698;SDS011;33708;49.466;11.176;2022-11-24T08:38:01;18.50;;;3.00;;
4698;SDS011;33708;49.466;11.176;2022-11-24T08:40:27;12.40;;;2.37;;
4698;SDS011;33708;49.466;11.176;2022-11-24T08:42:55;11.13;;;2.00;;
4698;SDS011;33708;49.466;11.176;2022-11-24T08:45:25;13.47;;;2.63;;
4698;SDS011;33708;49.466;11.176;2022-11-24T08:47:51;19.57;;;2.70;;
4698;SDS011;33708;49.466;11.176;2022-11-24T08:50:21;18.70;;;2.73;;
4698;SDS011;33708;49.466;11.176;2022-11-24T08:52:49;11.27;;;2.57;;
4698;SDS011;33708;49.466;11.176;2022-11-24T08:55:16;15.50;;;2.80;;
4698;SDS011;33708;49.466;11.176;2022-11-24T08:57:41;18.50;;;3.20;;
4698;SDS011;33708;49.466;11.176;2022-11-24T09:00:08;15.20;;;2.60;;
4698;SDS011;33708;49.466;11.176;2022-11-24T09:02:34;16.70;;;2.60;;
4698;SDS011;33708;49.466;11.176;2022-11-24T09:05:00;24.27;;;3.13;;
4698;SDS011;33708;49.466;11.176;2022-11-24T09:07:25;23.63;;;2.40;;
4698;SDS011;33708;49.466;11.176;2022-11-24T09:09:51;16.00;;;2.40;;
4698;SDS011;33708;49.466;11.176;2022-11-24T09:12:16;13.83;;;2.47;;
4698;SDS011;33708;49.466;11.176;2022-11-24T09:14:42;15.80;;;2.70;;
4698;SDS011;33708;49.466;11.176;2022-11-24T09:17:07;12.03;;;2.37;;
4698;SDS011;33708;49.466;11.176;2022-11-24T09:19:33;11.97;;;2.40;;
4698;SDS011;33708;49.466;11.176;2022-11-24T09:21:59;20.27;;;3.00;;
4698;SDS011;33708;49.466;11.176;2022-11-24T09:24:24;13.83;;;2.33;;
4698;SDS011;33708;49.466;11.176;2022-11-24T09:26:51;15.03;;;2.23;;
4698;SDS011;33708;49.466;11.176;2022-11-24T09:29:17;14.30;;;2.97;;
4698;SDS011;33708;49.466;11.176;2022-11-24T09:31:44;14.73;;;2.73;;
4698;SDS011;33708;49.466;11.176;2022-11-24T09:34:11;11.53;;;2.40;;
4698;SDS011;33708;49.466;11.176;2022-11-24T09:36:39;13.47;;;2.27;;
4698;SDS011;33708;49.466;11.176;2022-11-24T09:39:05;13.37;;;2.43;;
4698;SDS011;33708;49.466;11.176;2022-11-24T09:49:38;15.90;;;2.60;;
4698;SDS011;33708;49.466;11.176;2022-11-24T09:52:14;13.70;;;2.70;;
4698;SDS011;33708;49.466;11.176;2022-11-24T09:54:48;10.53;;;2.33;;
4698;SDS011;33708;49.466;11.176;2022-11-24T09:57:18;18.00;;;3.27;;
4698;SDS011;33708;49.466;11.176;2022-11-24T09:59:48;16.80;;;2.67;;
4698;SDS011;33708;49.466;11.176;2022-11-24T10:02:14;18.97;;;3.13;;
4698;SDS011;33708;49.466;11.176;2022-11-24T10:04:42;19.53;;;3.37;;
4698;SDS011;33708;49.466;11.176;2022-11-24T10:15:17;16.80;;;2.60;;
4698;SDS011;33708;49.466;11.176;2022-11-24T10:26:00;15.47;;;2.63;;
4698;SDS011;33708;49.466;11.176;2022-11-24T10:28:50;12.33;;;2.10;;
4698;SDS011;33708;49.466;11.176;2022-11-24T10:31:23;9.93;;;2.10;;
4698;SDS011;33708;49.466;11.176;2022-11-24T10:33:49;13.60;;;2.10;;
4698;SDS011;33708;49.466;11.176;2022-11-24T10:36:19;10.27;;;1.73;;
4698;SDS011;33708;49.466;11.176;2022-11-24T10:39:31;11.50;;;2.33;;
4698;SDS011;33708;49.466;11.176;2022-11-24T10:42:22;9.70;;;1.97;;
4698;SDS011;33708;49.466;11.176;2022-11-24T10:47:39;10.17;;;1.97;;
4698;SDS011;33708;49.466;11.176;2022-11-24T10:50:25;13.73;;;2.00;;
4698;SDS011;33708;49.466;11.176;2022-11-24T10:55:55;11.00;;;2.30;;
4698;SDS011;33708;49.466;11.176;2022-11-24T11:00:54;11.60;;;1.87;;
4698;SDS011;33708;49.466;11.176;2022-11-24T11:03:27;10.83;;;2.00;;
4698;SDS011;33708;49.466;11.176;2022-11-24T11:06:30;11.23;;;1.70;;
4698;SDS011;33708;49.466;11.176;2022-11-24T11:09:10;14.43;;;2.20;;
4698;SDS011;33708;49.466;11.176;2022-11-24T11:11:41;7.87;;;1.80;;
4698;SDS011;33708;49.466;11.176;2022-11-24T11:14:10;12.13;;;2.57;;
4698;SDS011;33708;49.466;11.176;2022-11-24T11:19:05;15.83;;;2.77;;
4698;SDS011;33708;49.466;11.176;2022-11-24T11:24:35;12.23;;;2.50;;
4698;SDS011;33708;49.466;11.176;2022-11-24T11:29:42;11.77;;;2.20;;
4698;SDS011;33708;49.466;11.176;2022-11-24T11:32:18;16.90;;;2.80;;
4698;SDS011;33708;49.466;11.176;2022-11-24T11:34:45;16.53;;;2.20;;
4698;SDS011;33708;49.466;11.176;2022-11-24T11:37:12;13.93;;;2.60;;
4698;SDS011;33708;49.466;11.176;2022-11-24T11:39:39;17.33;;;3.53;;
4698;SDS011;33708;49.466;11.176;2022-11-24T11:44:54;15.17;;;2.63;;
4698;SDS011;33708;49.466;11.176;2022-11-24T11:58:45;14.33;;;2.77;;
4698;SDS011;33708;49.466;11.176;2022-11-24T12:12:48;9.97;;;2.43;;
4698;SDS011;33708;49.466;11.176;2022-11-24T12:31:53;9.80;;;2.20;;
4698;SDS011;33708;49.466;11.176;2022-11-24T12:39:56;12.77;;;1.97;;
4698;SDS011;33708;49.466;11.176;2022-11-24T12:45:13;13.33;;;2.53;;
4698;SDS011;33708;49.466;11.176;2022-11-24T12:50:23;16.67;;;2.53;;
4698;SDS011;33708;49.466;11.176;2022-11-24T12:55:27;12.67;;;2.23;;
4698;SDS011;33708;49.466;11.176;2022-11-24T13:01:05;15.57;;;3.47;;
4698;SDS011;33708;49.466;11.176;2022-11-24T13:09:08;14.83;;;2.93;;
4698;SDS011;33708;49.466;11.176;2022-11-24T13:14:11;16.53;;;3.23;;
4698;SDS011;33708;49.466;11.176;2022-11-24T13:16:47;10.10;;;2.87;;
4698;SDS011;33708;49.466;11.176;2022-11-24T13:19:13;15.47;;;2.70;;
4698;SDS011;33708;49.466;11.176;2022-11-24T13:26:44;10.80;;;2.30;;
4698;SDS011;33708;49.466;11.176;2022-11-24T13:39:54;13.77;;;2.67;;
4698;SDS011;33708;49.466;11.176;2022-11-24T13:42:20;16.10;;;1.90;;
4698;SDS011;33708;49.466;11.176;2022-11-24T13:47:35;16.23;;;2.60;;
4698;SDS011;33708;49.466;11.176;2022-11-24T13:50:06;13.13;;;1.90;;
4698;SDS011;33708;49.466;11.176;2022-11-24T14:01:19;11.33;;;1.80;;
4698;SDS011;33708;49.466;11.176;2022-11-24T14:06:44;14.27;;;2.40;;
4698;SDS011;33708;49.466;11.176;2022-11-24T14:09:27;12.47;;;2.50;;
4698;SDS011;33708;49.466;11.176;2022-11-24T14:12:18;13.10;;;2.40;;
4698;SDS011;33708;49.466;11.176;2022-11-24T14:14:48;20.80;;;2.80;;
4698;SDS011;33708;49.466;11.176;2022-11-24T14:17:25;17.93;;;3.50;;
4698;SDS011;33708;49.466;11.176;2022-11-24T14:19:56;15.90;;;2.60;;
4698;SDS011;33708;49.466;11.176;2022-11-24T14:22:40;13.50;;;2.30;;
4698;SDS011;33708;49.466;11.176;2022-11-24T14:25:27;14.37;;;2.50;;
4698;SDS011;33708;49.466;11.176;2022-11-24T14:27:54;10.43;;;2.23;;
4698;SDS011;33708;49.466;11.176;2022-11-24T14:30:21;18.30;;;2.10;;
4698;SDS011;33708;49.466;11.176;2022-11-24T14:33:00;15.20;;;1.90;;
4698;SDS011;33708;49.466;11.176;2022-11-24T14:37:54;15.67;;;2.57;;
4698;SDS011;33708;49.466;11.176;2022-11-24T14:43:29;16.20;;;2.63;;
4698;SDS011;33708;49.466;11.176;2022-11-24T14:45:57;11.67;;;2.50;;
4698;SDS011;33708;49.466;11.176;2022-11-24T14:48:26;11.10;;;1.97;;
4698;SDS011;33708;49.466;11.176;2022-11-24T14:51:03;17.00;;;3.10;;
4698;SDS011;33708;49.466;11.176;2022-11-24T14:53:43;17.50;;;3.50;;
4698;SDS011;33708;49.466;11.176;2022-11-24T14:56:25;18.03;;;2.93;;
4698;SDS011;33708;49.466;11.176;2022-11-24T14:58:53;16.20;;;3.00;;
4698;SDS011;33708;49.466;11.176;2022-11-24T15:01:28;14.97;;;2.47;;
4698;SDS011;33708;49.466;11.176;2022-11-24T15:06:40;15.73;;;3.30;;
4698;SDS011;33708;49.466;11.176;2022-11-24T15:12:55;15.00;;;3.20;;
4698;SDS011;33708;49.466;11.176;2022-11-24T15:15:14;17.47;;;3.57;;
4698;SDS011;33708;49.466;11.176;2022-11-24T15:17:54;15.13;;;3.57;;
4698;SDS011;33708;49.466;11.176;2022-11-24T15:22:47;14.33;;;3.87;;
4698;SDS011;33708;49.466;11.176;2022-11-24T15:27:52;19.37;;;5.27;;
4698;SDS011;33708;49.466;11.176;2022-11-24T15:30:18;19.53;;;4.60;;
4698;SDS011;33708;49.466;11.176;2022-11-24T15:32:50;23.20;;;4.97;;
4698;SDS011;33708;49.466;11.176;2022-11-24T15:35:16;15.43;;;3.90;;
4698;SDS011;33708;49.466;11.176;2022-11-24T15:37:42;21.10;;;3.57;;
4698;SDS011;33708;49.466;11.176;2022-11-24T15:40:07;15.87;;;2.73;;
4698;SDS011;33708;49.466;11.176;2022-11-24T15:42:35;13.90;;;2.83;;
4698;SDS011;33708;49.466;11.176;2022-11-24T15:45:01;14.70;;;3.30;;
4698;SDS011;33708;49.466;11.176;2022-11-24T15:47:27;18.60;;;4.40;;
4698;SDS011;33708;49.466;11.176;2022-11-24T15:49:52;14.47;;;3.47;;
4698;SDS011;33708;49.466;11.176;2022-11-24T15:52:18;15.23;;;3.20;;
4698;SDS011;33708;49.466;11.176;2022-11-24T15:54:45;23.87;;;3.37;;
4698;SDS011;33708;49.466;11.176;2022-11-24T15:57:19;17.30;;;3.30;;
4698;SDS011;33708;49.466;11.176;2022-11-24T15:59:44;18.70;;;3.67;;
4698;SDS011;33708;49.466;11.176;2022-11-24T16:02:10;19.63;;;4.10;;
4698;SDS011;33708;49.466;11.176;2022-11-24T16:04:36;14.37;;;3.67;;
4698;SDS011;33708;49.466;11.176;2022-11-24T16:07:05;16.73;;;4.00;;
4698;SDS011;33708;49.466;11.176;2022-11-24T16:09:36;11.83;;;3.53;;
4698;SDS011;33708;49.466;11.176;2022-11-24T16:12:01;17.83;;;3.10;;
4698;SDS011;33708;49.466;11.176;2022-11-24T16:14:27;22.33;;;4.40;;
4698;SDS011;33708;49.466;11.176;2022-11-24T16:16:53;18.57;;;3.40;;
4698;SDS011;33708;49.466;11.176;2022-11-24T16:19:19;13.33;;;3.23;;
4698;SDS011;33708;49.466;11.176;2022-11-24T16:21:48;14.23;;;2.87;;
4698;SDS011;33708;49.466;11.176;2022-11-24T16:24:14;19.93;;;3.90;;
4698;SDS011;33708;49.466;11.176;2022-11-24T16:26:39;10.40;;;2.97;;
4698;SDS011;33708;49.466;11.176;2022-11-24T16:29:05;16.07;;;3.43;;
4698;SDS011;33708;49.466;11.176;2022-11-24T16:31:31;15.93;;;3.10;;
4698;SDS011;33708;49.466;11.176;2022-11-24T16:33:57;17.83;;;3.10;;
4698;SDS011;33708;49.466;11.176;2022-11-24T16:36:22;17.63;;;3.03;;
4698;SDS011;33708;49.466;11.176;2022-11-24T16:38:48;14.00;;;3.30;;
4698;SDS011;33708;49.466;11.176;2022-11-24T16:41:14;14.03;;;3.27;;
4698;SDS011;33708;49.466;11.176;2022-11-24T16:43:40;15.80;;;3.53;;
4698;SDS011;33708;49.466;11.176;2022-11-24T16:48:44;20.17;;;4.53;;
4698;SDS011;33708;49.466;11.176;2022-11-24T16:51:12;32.20;;;8.73;;
4698;SDS011;33708;49.466;11.176;2022-11-24T16:53:39;28.57;;;7.97;;
4698;SDS011;33708;49.466;11.176;2022-11-24T16:56:05;20.20;;;6.27;;
4698;SDS011;33708;49.466;11.176;2022-11-24T16:58:31;29.13;;;8.07;;
4698;SDS011;33708;49.466;11.176;2022-11-24T17:01:03;19.60;;;6.07;;
4698;SDS011;33708;49.466;11.176;2022-11-24T17:03:30;14.53;;;4.33;;
4698;SDS011;33708;49.466;11.176;2022-11-24T17:06:06;18.60;;;4.53;;
4698;SDS011;33708;49.466;11.176;2022-11-24T17:08:34;37.17;;;17.23;;
4698;SDS011;33708;49.466;11.176;2022-11-24T17:11:05;19.87;;;4.87;;
4698;SDS011;33708;49.466;11.176;2022-11-24T17:13:34;32.13;;;14.10;;
4698;SDS011;33708;49.466;11.176;2022-11-24T17:16:07;38.17;;;18.70;;
4698;SDS011;33708;49.466;11.176;2022-11-24T17:18:34;21.13;;;9.40;;
4698;SDS011;33708;49.466;11.176;2022-11-24T17:21:01;17.70;;;6.87;;
4698;SDS011;33708;49.466;11.176;2022-11-24T17:23:27;16.53;;;5.57;;
4698;SDS011;33708;49.466;11.176;2022-11-24T17:25:53;12.97;;;3.43;;
4698;SDS011;33708;49.466;11.176;2022-11-24T17:28:24;20.40;;;3.27;;
4698;SDS011;33708;49.466;11.176;2022-11-24T17:30:50;14.43;;;3.07;;